Time;durP1;ratioP1;P1;durP2;ratioP2;P2;SDS_P1;SDS_P2;PMS_P1;PMS_P2;Temp;Humidity;BMP_temperature;BMP_pressure;BME280_temperature;BME280_humidity;BME280_pressure;Samples;Min_cycle;Max_cycle;Signal;HPM_P1;HPM_P2
2022/11/09 00:00:03;;;;;;;13.48;3.53;;;13.70;83.30;;;;;;5050520;28;20033;-75
2022/11/09 00:02:29;;;;;;;9.43;3.25;;;13.70;83.20;;;;;;5032946;28;20439;-74
2022/11/09 00:04:55;;;;;;;12.30;3.10;;;13.60;83.40;;;;;;5050983;28;20116;-74
2022/11/09 00:07:20;;;;;;;11.82;3.85;;;13.60;83.30;;;;;;5047700;28;20037;-75
2022/11/09 00:09:46;;;;;;;11.45;3.10;;;13.60;83.30;;;;;;5048112;28;20041;-74
2022/11/09 00:12:11;;;;;;;10.52;3.08;;;13.60;83.30;;;;;;5048105;28;20061;-74
2022/11/09 00:14:37;;;;;;;12.05;3.38;;;13.50;83.30;;;;;;5025433;28;20145;-74
2022/11/09 00:17:03;;;;;;;10.35;3.03;;;13.50;83.30;;;;;;5047143;28;20057;-74
2022/11/09 00:19:28;;;;;;;10.77;2.95;;;13.50;83.20;;;;;;5031243;28;20037;-72
2022/11/09 00:21:54;;;;;;;12.23;3.22;;;13.50;83.00;;;;;;5048475;28;20418;-75
2022/11/09 00:24:20;;;;;;;11.80;3.03;;;13.50;83.00;;;;;;5030854;28;20032;-72
2022/11/09 00:26:45;;;;;;;12.68;3.00;;;13.50;82.80;;;;;;5048898;28;20373;-74
2022/11/09 00:29:11;;;;;;;14.68;3.25;;;13.50;82.80;;;;;;5026806;28;20045;-74
2022/11/09 00:31:36;;;;;;;10.80;3.00;;;13.50;82.80;;;;;;5048577;28;20389;-74
2022/11/09 00:34:02;;;;;;;12.30;3.13;;;13.30;82.90;;;;;;5048836;28;20025;-74
2022/11/09 00:36:29;;;;;;;11.07;3.53;;;13.30;83.10;;;;;;5032561;28;20100;-73
2022/11/09 00:38:59;;;;;;;9.77;2.92;;;13.30;83.30;;;;;;5044339;28;20025;-74
2022/11/09 00:41:25;;;;;;;12.43;3.63;;;13.30;83.40;;;;;;5046876;28;20116;-74
2022/11/09 00:43:51;;;;;;;14.25;3.17;;;13.30;83.30;;;;;;5050749;28;20099;-74
2022/11/09 00:46:17;;;;;;;9.23;2.75;;;13.30;83.20;;;;;;5027674;28;20040;-73
2022/11/09 00:48:44;;;;;;;7.70;3.17;;;13.30;83.30;;;;;;5046815;28;20087;-74
2022/11/09 00:51:10;;;;;;;8.27;2.40;;;13.30;83.20;;;;;;5042539;28;20108;-75
2022/11/09 00:53:36;;;;;;;9.75;2.67;;;13.30;83.10;;;;;;5047600;28;20039;-75
2022/11/09 00:56:07;;;;;;;11.52;2.80;;;13.30;83.30;;;;;;5041486;28;20029;-76
2022/11/09 00:58:35;;;;;;;10.20;2.80;;;13.30;83.10;;;;;;5030161;28;20089;-75
2022/11/09 01:01:07;;;;;;;13.32;2.85;;;13.30;83.00;;;;;;5037355;28;20025;-75
2022/11/09 01:03:32;;;;;;;8.70;2.75;;;13.30;83.00;;;;;;5048086;28;20052;-73
2022/11/09 01:05:59;;;;;;;12.65;3.03;;;13.30;82.80;;;;;;5049169;28;20055;-74
2022/11/09 01:08:25;;;;;;;11.45;3.10;;;13.30;82.90;;;;;;5040382;28;20028;-74
2022/11/09 01:10:50;;;;;;;10.27;2.70;;;13.30;82.80;;;;;;5048712;28;20422;-78
2022/11/09 01:13:17;;;;;;;11.25;2.80;;;13.40;82.50;;;;;;5041352;28;20090;-73
2022/11/09 01:15:52;;;;;;;13.07;2.65;;;13.30;82.50;;;;;;5048081;28;20112;-75
2022/11/09 01:18:19;;;;;;;8.88;2.50;;;13.30;82.40;;;;;;5045698;28;20491;-76
2022/11/09 01:20:47;;;;;;;11.02;3.10;;;13.30;82.40;;;;;;5030809;28;20067;-73
2022/11/09 01:23:14;;;;;;;7.75;2.47;;;13.30;82.30;;;;;;5028307;28;20048;-74
2022/11/09 01:25:40;;;;;;;14.23;2.95;;;13.30;82.20;;;;;;5030776;28;20033;-76
2022/11/09 01:28:07;;;;;;;9.88;2.50;;;13.30;82.30;;;;;;5046551;28;20094;-73
2022/11/09 01:30:34;;;;;;;14.98;3.72;;;13.40;82.20;;;;;;5048355;28;20112;-73
2022/11/09 01:33:03;;;;;;;12.40;3.22;;;13.30;82.20;;;;;;5046274;28;20086;-75
2022/11/09 01:35:29;;;;;;;13.90;2.83;;;13.30;82.30;;;;;;5026683;28;20021;-75
2022/11/09 01:37:54;;;;;;;12.13;2.80;;;13.30;82.50;;;;;;5046297;28;20468;-74
2022/11/09 01:40:20;;;;;;;11.73;2.50;;;13.30;82.40;;;;;;5047576;28;20040;-74
2022/11/09 01:42:46;;;;;;;10.77;3.00;;;13.20;82.50;;;;;;5046026;28;20120;-75
2022/11/09 01:45:17;;;;;;;13.43;3.15;;;13.20;82.60;;;;;;5055565;28;20637;-74
2022/11/09 01:47:46;;;;;;;13.35;2.92;;;13.20;82.60;;;;;;5026272;28;20120;-79
2022/11/09 01:50:14;;;;;;;13.50;2.80;;;13.20;82.40;;;;;;5045508;28;20477;-74
2022/11/09 01:52:44;;;;;;;9.45;2.78;;;13.20;82.40;;;;;;5028348;28;20028;-74
2022/11/09 01:55:15;;;;;;;10.38;2.72;;;13.20;82.30;;;;;;5047522;28;20033;-75
2022/11/09 01:58:09;;;;;;;15.32;2.85;;;13.10;82.40;;;;;;5027723;28;20457;-74
2022/11/09 02:00:37;;;;;;;13.35;2.40;;;13.10;82.70;;;;;;5041639;28;20774;-73
2022/11/09 02:03:20;;;;;;;15.88;2.90;;;13.00;82.80;;;;;;5028394;28;20025;-75
2022/11/09 02:05:47;;;;;;;10.88;2.70;;;13.00;82.80;;;;;;5047807;28;20029;-74
2022/11/09 02:08:16;;;;;;;13.10;3.30;;;12.90;82.90;;;;;;5045839;28;20071;-75
2022/11/09 02:10:47;;;;;;;19.23;2.58;;;12.90;83.00;;;;;;5047521;28;20040;-76
2022/11/09 02:13:16;;;;;;;11.23;2.55;;;12.90;83.00;;;;;;5028044;28;20124;-75
2022/11/09 02:15:42;;;;;;;11.70;2.80;;;12.90;83.30;;;;;;5028190;28;20529;-74
2022/11/09 02:18:08;;;;;;;11.43;2.97;;;12.80;83.40;;;;;;5045981;28;20491;-78
2022/11/09 02:20:45;;;;;;;15.23;3.03;;;12.80;83.50;;;;;;5028284;28;20033;-74
2022/11/09 02:23:12;;;;;;;14.52;3.60;;;12.80;83.50;;;;;;5040434;28;20131;-74
2022/11/09 02:25:37;;;;;;;10.45;2.50;;;12.80;83.50;;;;;;5029074;28;20052;-73
2022/11/09 02:28:03;;;;;;;14.15;3.25;;;12.70;83.70;;;;;;5028753;28;20388;-74
2022/11/09 02:30:31;;;;;;;12.70;3.00;;;12.70;84.10;;;;;;5027854;28;20029;-74
2022/11/09 02:32:56;;;;;;;10.02;2.30;;;12.70;84.30;;;;;;5028798;28;20029;-75
2022/11/09 02:35:22;;;;;;;12.32;2.42;;;12.60;84.50;;;;;;5037785;28;20028;-74
2022/11/09 02:37:48;;;;;;;13.93;2.88;;;12.60;84.50;;;;;;5047092;28;20496;-75
2022/11/09 02:40:23;;;;;;;13.93;2.83;;;12.60;84.90;;;;;;5027590;28;20039;-77
2022/11/09 02:42:49;;;;;;;13.05;3.10;;;12.60;85.00;;;;;;5021096;28;20096;-75
2022/11/09 02:45:14;;;;;;;13.00;2.95;;;12.60;85.20;;;;;;5055149;28;20602;-73
2022/11/09 02:47:40;;;;;;;12.77;2.88;;;12.60;85.20;;;;;;5050328;28;20112;-73
2022/11/09 02:50:06;;;;;;;12.50;3.30;;;12.50;85.50;;;;;;5032962;28;20037;-75
2022/11/09 02:52:31;;;;;;;18.30;3.58;;;12.50;85.70;;;;;;5049331;28;20049;-73
2022/11/09 02:54:57;;;;;;;12.13;2.90;;;12.50;85.70;;;;;;5033879;28;20445;-75
2022/11/09 02:57:22;;;;;;;10.43;2.45;;;12.50;85.90;;;;;;5049669;28;20040;-74
2022/11/09 02:59:48;;;;;;;11.70;2.38;;;12.40;86.10;;;;;;5052007;28;20342;-74
2022/11/09 03:02:14;;;;;;;15.50;3.35;;;12.50;86.10;;;;;;5036320;28;20045;-74
2022/11/09 03:04:39;;;;;;;15.55;2.70;;;12.40;86.30;;;;;;5053144;28;20021;-74
2022/11/09 03:07:05;;;;;;;12.85;2.90;;;12.40;86.20;;;;;;5031808;28;20017;-78
2022/11/09 03:09:31;;;;;;;12.98;3.05;;;12.40;86.30;;;;;;5033356;28;20116;-74
2022/11/09 03:11:56;;;;;;;13.75;3.78;;;12.40;86.40;;;;;;5039511;28;20119;-75
2022/11/09 03:14:22;;;;;;;11.55;2.78;;;12.30;86.70;;;;;;5049599;28;20356;-74
2022/11/09 03:16:48;;;;;;;14.00;3.05;;;12.30;86.80;;;;;;5033134;28;20071;-74
2022/11/09 03:19:14;;;;;;;16.95;3.35;;;12.30;86.90;;;;;;5042643;28;20454;-74
2022/11/09 03:21:39;;;;;;;18.98;3.83;;;12.30;86.80;;;;;;5032772;28;20041;-73
2022/11/09 03:24:05;;;;;;;11.13;3.28;;;12.30;87.00;;;;;;5050160;28;20083;-75
2022/11/09 03:26:32;;;;;;;10.55;3.03;;;12.30;87.00;;;;;;5038561;28;20050;-74
2022/11/09 03:28:57;;;;;;;15.18;3.47;;;12.30;87.10;;;;;;5040482;28;20477;-74
2022/11/09 03:31:23;;;;;;;11.55;3.13;;;12.20;87.10;;;;;;5049621;28;20032;-74
2022/11/09 03:33:48;;;;;;;16.90;2.92;;;12.20;87.30;;;;;;5032650;28;20029;-79
2022/11/09 03:36:14;;;;;;;16.23;3.42;;;12.20;87.30;;;;;;5049606;28;20111;-74
2022/11/09 03:38:40;;;;;;;17.67;4.03;;;12.20;87.40;;;;;;5031750;28;20079;-74
2022/11/09 03:41:06;;;;;;;14.68;3.15;;;12.20;87.60;;;;;;5047116;28;20412;-74
2022/11/09 03:43:31;;;;;;;15.57;3.80;;;12.10;87.50;;;;;;5033837;28;20111;-74
2022/11/09 03:45:57;;;;;;;14.35;3.05;;;12.10;87.60;;;;;;5052192;28;20437;-75
2022/11/09 03:48:23;;;;;;;13.70;3.47;;;12.10;87.70;;;;;;5047243;28;20040;-75
2022/11/09 03:50:48;;;;;;;13.57;3.78;;;12.10;87.90;;;;;;5031968;28;20052;-74
2022/11/09 03:53:14;;;;;;;9.43;2.78;;;12.10;88.00;;;;;;5049721;28;20117;-75
2022/11/09 03:55:40;;;;;;;13.00;3.38;;;12.10;88.00;;;;;;5028346;28;20469;-75
2022/11/09 03:58:08;;;;;;;17.08;3.88;;;12.10;88.00;;;;;;5045058;28;20480;-74
2022/11/09 04:00:35;;;;;;;14.98;3.22;;;12.10;88.10;;;;;;5049810;28;20077;-74
2022/11/09 04:03:01;;;;;;;14.18;3.72;;;12.10;88.10;;;;;;5050377;28;20032;-74
2022/11/09 04:05:27;;;;;;;13.55;3.28;;;12.10;88.10;;;;;;5047857;28;20041;-75
2022/11/09 04:07:55;;;;;;;13.05;3.60;;;12.10;88.10;;;;;;5031681;28;20116;-74
2022/11/09 04:10:22;;;;;;;18.15;3.72;;;12.10;88.00;;;;;;5029677;28;20420;-77
2022/11/09 04:12:48;;;;;;;14.25;3.67;;;12.10;88.00;;;;;;5032061;28;20370;-74
2022/11/09 04:15:14;;;;;;;13.77;3.45;;;12.10;88.20;;;;;;5049370;28;20033;-74
2022/11/09 04:17:40;;;;;;;13.23;3.38;;;12.10;88.20;;;;;;5030869;28;20078;-78
2022/11/09 04:20:07;;;;;;;13.85;3.00;;;12.10;88.20;;;;;;5046186;28;20487;-76
2022/11/09 04:22:32;;;;;;;17.10;3.92;;;12.10;88.00;;;;;;5030708;28;20037;-74
2022/11/09 04:24:58;;;;;;;11.90;3.45;;;12.10;88.10;;;;;;5026844;28;20067;-75
2022/11/09 04:27:24;;;;;;;12.05;2.80;;;12.10;87.90;;;;;;5028075;28;21788;-76
2022/11/09 04:29:49;;;;;;;15.43;3.60;;;12.10;88.00;;;;;;5048650;28;20427;-75
2022/11/09 04:32:15;;;;;;;13.45;3.83;;;12.10;87.90;;;;;;5048939;28;20036;-78
2022/11/09 04:34:41;;;;;;;16.52;3.83;;;12.00;88.00;;;;;;5049811;28;20033;-74
2022/11/09 04:37:07;;;;;;;13.57;3.50;;;12.00;88.10;;;;;;5051227;28;20382;-74
2022/11/09 04:39:33;;;;;;;17.83;4.13;;;11.90;88.20;;;;;;5048028;28;20123;-74
2022/11/09 04:41:59;;;;;;;14.30;3.50;;;12.00;88.40;;;;;;5039738;28;20032;-75
2022/11/09 04:44:25;;;;;;;12.07;3.20;;;12.00;88.30;;;;;;5049067;28;20025;-74
2022/11/09 04:46:50;;;;;;;13.90;3.30;;;12.00;88.30;;;;;;5048032;28;20037;-76
2022/11/09 04:49:16;;;;;;;14.18;3.42;;;12.00;88.20;;;;;;5062630;28;20073;-74
2022/11/09 04:51:42;;;;;;;14.15;3.40;;;11.90;88.40;;;;;;5047566;28;20037;-74
2022/11/09 04:54:07;;;;;;;13.95;3.17;;;11.90;88.40;;;;;;5048188;28;20104;-73
2022/11/09 04:56:33;;;;;;;12.50;2.90;;;11.90;88.40;;;;;;5047978;28;20481;-73
2022/11/09 04:58:58;;;;;;;14.05;3.42;;;11.90;88.40;;;;;;5049453;28;20040;-74
2022/11/09 05:01:24;;;;;;;15.18;3.83;;;11.90;88.50;;;;;;5028651;28;20053;-77
2022/11/09 05:03:50;;;;;;;12.48;3.22;;;11.90;88.30;;;;;;5031203;28;20033;-75
2022/11/09 05:06:30;;;;;;;15.77;3.55;;;11.90;88.40;;;;;;5030162;28;20037;-74
2022/11/09 05:08:57;;;;;;;12.95;3.20;;;11.90;88.40;;;;;;5030747;28;20036;-73
2022/11/09 05:11:23;;;;;;;15.20;4.60;;;11.80;88.50;;;;;;5047337;28;20178;-72
2022/11/09 05:13:50;;;;;;;12.52;3.28;;;11.80;88.50;;;;;;5052229;28;20544;-76
2022/11/09 05:16:16;;;;;;;16.70;3.58;;;11.70;88.50;;;;;;5027375;28;20048;-75
2022/11/09 05:18:42;;;;;;;15.70;3.65;;;11.70;88.70;;;;;;5047280;28;20358;-74
2022/11/09 05:21:08;;;;;;;13.13;3.55;;;11.80;88.70;;;;;;5029482;28;20040;-72
2022/11/09 05:26:18;;;;;;;17.97;3.30;;;11.80;88.50;;;;;;5033658;28;20098;-74
2022/11/09 05:28:43;;;;;;;17.02;3.88;;;11.70;88.50;;;;;;5040892;28;20279;-75
2022/11/09 05:31:09;;;;;;;14.38;3.28;;;11.70;88.50;;;;;;5040488;28;20033;-73
2022/11/09 05:33:35;;;;;;;17.42;4.15;;;11.70;88.60;;;;;;5026745;28;20032;-73
2022/11/09 05:36:01;;;;;;;18.42;4.30;;;11.60;88.70;;;;;;5036007;28;20032;-75
2022/11/09 05:38:26;;;;;;;14.75;3.30;;;11.60;88.70;;;;;;5021616;28;20017;-73
2022/11/09 05:40:53;;;;;;;12.63;3.40;;;11.60;88.80;;;;;;5039061;28;20021;-73
2022/11/09 05:43:19;;;;;;;13.88;3.20;;;11.60;88.90;;;;;;5038652;28;20041;-73
2022/11/09 05:45:45;;;;;;;20.05;4.07;;;11.60;89.00;;;;;;5034471;28;20037;-73
2022/11/09 05:48:13;;;;;;;17.75;4.15;;;11.60;89.10;;;;;;5042384;28;20021;-73
2022/11/09 05:50:40;;;;;;;14.88;3.70;;;11.60;89.10;;;;;;5024511;28;20077;-73
2022/11/09 05:53:06;;;;;;;19.25;4.60;;;11.60;89.10;;;;;;5035775;28;20025;-74
2022/11/09 05:55:32;;;;;;;13.50;3.67;;;11.60;89.10;;;;;;5026049;28;20040;-78
2022/11/09 05:57:58;;;;;;;15.00;3.50;;;11.60;89.10;;;;;;5042184;28;20021;-75
2022/11/09 06:00:23;;;;;;;15.20;3.45;;;11.60;89.10;;;;;;5033652;28;20565;-75
2022/11/09 06:02:49;;;;;;;18.42;3.88;;;11.60;89.00;;;;;;5036563;28;20056;-79
2022/11/09 06:05:15;;;;;;;17.42;4.05;;;11.60;89.20;;;;;;5018023;28;20052;-73
2022/11/09 06:07:41;;;;;;;15.20;4.20;;;11.50;89.30;;;;;;5041040;28;20037;-72
2022/11/09 06:10:07;;;;;;;13.57;3.40;;;11.60;89.30;;;;;;5045566;28;20052;-73
2022/11/09 06:12:33;;;;;;;18.08;4.53;;;11.50;89.30;;;;;;5024399;28;20029;-74
2022/11/09 06:14:59;;;;;;;18.83;4.00;;;11.50;89.30;;;;;;5046496;28;20370;-73
2022/11/09 06:17:24;;;;;;;14.63;3.50;;;11.40;89.20;;;;;;5040884;28;20414;-77
2022/11/09 06:19:50;;;;;;;18.33;4.47;;;11.50;89.40;;;;;;5041856;28;20115;-74
2022/11/09 06:22:16;;;;;;;17.25;4.35;;;11.40;89.50;;;;;;5044797;28;20033;-78
2022/11/09 06:24:41;;;;;;;21.10;4.15;;;11.40;89.50;;;;;;5026754;28;20811;-73
2022/11/09 06:27:07;;;;;;;16.58;3.70;;;11.40;89.70;;;;;;5041442;28;20452;-74
2022/11/09 06:29:33;;;;;;;17.63;4.20;;;11.30;89.60;;;;;;5027854;28;20493;-74
2022/11/09 06:31:58;;;;;;;15.35;3.70;;;11.30;89.60;;;;;;5042677;28;20407;-74
2022/11/09 06:34:24;;;;;;;16.08;4.10;;;11.30;89.70;;;;;;5042862;28;20093;-73
2022/11/09 06:36:50;;;;;;;9.63;2.83;;;11.30;89.70;;;;;;5026552;28;20521;-75
2022/11/09 06:39:16;;;;;;;20.48;4.53;;;11.30;89.80;;;;;;5026572;28;20037;-74
2022/11/09 06:41:41;;;;;;;14.02;3.50;;;11.30;89.80;;;;;;5037654;28;20052;-74
2022/11/09 06:44:07;;;;;;;17.02;3.83;;;11.30;89.80;;;;;;5030100;28;20067;-75
2022/11/09 06:46:32;;;;;;;15.13;3.60;;;11.30;89.60;;;;;;5029007;28;20102;-74
2022/11/09 06:48:58;;;;;;;15.68;3.80;;;11.30;89.70;;;;;;5044348;28;20044;-74
2022/11/09 06:51:24;;;;;;;14.93;4.22;;;11.40;89.70;;;;;;5043053;28;20063;-74
2022/11/09 06:53:50;;;;;;;14.18;3.90;;;11.40;89.60;;;;;;5043837;28;20454;-74
2022/11/09 06:56:16;;;;;;;13.95;3.75;;;11.30;89.60;;;;;;5026628;28;20043;-74
2022/11/09 06:58:41;;;;;;;19.50;4.65;;;11.40;89.50;;;;;;5044053;28;20025;-74
2022/11/09 07:01:12;;;;;;;13.95;3.45;;;11.30;89.30;;;;;;5045130;28;20481;-76
2022/11/09 07:03:38;;;;;;;16.15;4.03;;;11.30;89.40;;;;;;5044342;28;20040;-74
2022/11/09 07:06:08;;;;;;;17.80;3.97;;;11.40;89.50;;;;;;5025059;28;20037;-74
2022/11/09 07:08:35;;;;;;;18.50;3.45;;;11.40;89.50;;;;;;5045826;28;20167;-75
2022/11/09 07:11:14;;;;;;;14.80;3.65;;;11.40;89.30;;;;;;5027974;28;20431;-76
2022/11/09 07:13:41;;;;;;;17.08;3.80;;;11.50;89.20;;;;;;5023098;28;20049;-75
2022/11/09 07:16:07;;;;;;;12.68;3.80;;;11.60;89.10;;;;;;5038045;28;20393;-73
2022/11/09 07:18:33;;;;;;;16.15;3.30;;;11.60;88.80;;;;;;5039398;28;20033;-74
2022/11/09 07:20:59;;;;;;;16.52;4.00;;;11.60;88.60;;;;;;5025742;28;20055;-74
2022/11/09 07:23:25;;;;;;;13.30;3.47;;;11.60;88.50;;;;;;5044094;28;20048;-73
2022/11/09 07:25:51;;;;;;;16.63;3.83;;;11.70;88.30;;;;;;5046606;28;20055;-74
2022/11/09 07:28:17;;;;;;;16.20;3.67;;;11.70;88.10;;;;;;5044202;28;20029;-74
2022/11/09 07:30:43;;;;;;;12.02;3.47;;;11.70;88.00;;;;;;5047713;28;20075;-74
2022/11/09 07:33:19;;;;;;;13.73;3.15;;;11.70;87.90;;;;;;5048367;28;20036;-74
2022/11/09 07:35:45;;;;;;;15.45;4.38;;;11.70;87.90;;;;;;5048359;28;20025;-75
2022/11/09 07:38:12;;;;;;;14.05;3.92;;;11.80;87.80;;;;;;5048293;28;20026;-73
2022/11/09 07:40:39;;;;;;;15.85;4.13;;;11.90;87.70;;;;;;5042982;28;20034;-74
2022/11/09 07:43:05;;;;;;;20.00;4.05;;;11.90;87.40;;;;;;5042954;28;20021;-74
2022/11/09 07:45:33;;;;;;;12.20;2.85;;;11.80;87.30;;;;;;5051740;28;20029;-77
2022/11/09 07:48:01;;;;;;;20.05;3.85;;;11.90;87.10;;;;;;5042834;28;20033;-74
2022/11/09 07:50:28;;;;;;;11.80;3.20;;;11.80;87.10;;;;;;5044445;28;20040;-72
2022/11/09 07:52:55;;;;;;;14.07;3.42;;;11.80;87.10;;;;;;5030371;28;20099;-72
2022/11/09 07:55:21;;;;;;;17.17;3.92;;;11.80;87.00;;;;;;5040356;28;20055;-73
2022/11/09 07:57:47;;;;;;;12.98;3.15;;;11.80;87.10;;;;;;5044751;28;20124;-73
2022/11/09 08:00:13;;;;;;;16.80;3.67;;;11.90;86.90;;;;;;5034831;28;20084;-75
2022/11/09 08:02:39;;;;;;;14.30;4.28;;;12.00;86.80;;;;;;5048888;28;20037;-72
2022/11/09 08:05:06;;;;;;;12.88;3.63;;;12.00;86.50;;;;;;5021909;28;20035;-74
2022/11/09 08:07:32;;;;;;;14.68;4.55;;;12.00;86.40;;;;;;5040671;28;20079;-72
2022/11/09 08:09:58;;;;;;;14.73;4.28;;;12.10;86.20;;;;;;5041830;28;20098;-72
2022/11/09 08:12:23;;;;;;;17.92;4.10;;;12.10;86.10;;;;;;5031708;28;20413;-77
2022/11/09 08:14:49;;;;;;;14.55;3.70;;;12.10;86.00;;;;;;5035269;28;20045;-74
2022/11/09 08:17:15;;;;;;;12.93;3.30;;;12.20;85.40;;;;;;5038136;28;20029;-71
2022/11/09 08:19:40;;;;;;;14.30;3.50;;;12.20;85.30;;;;;;5030594;28;20138;-73
2022/11/09 08:22:06;;;;;;;14.95;3.42;;;12.30;85.10;;;;;;5029486;28;20045;-74
2022/11/09 08:24:32;;;;;;;14.95;2.72;;;12.20;85.10;;;;;;5032595;28;20064;-73
2022/11/09 08:26:57;;;;;;;12.95;3.03;;;12.30;85.20;;;;;;5038268;28;20036;-75
2022/11/09 08:29:23;;;;;;;13.52;3.00;;;12.50;84.60;;;;;;5029671;28;20073;-73
2022/11/09 08:31:51;;;;;;;12.48;3.20;;;12.60;84.10;;;;;;5025695;28;20026;-73
2022/11/09 08:34:17;;;;;;;14.18;3.72;;;12.60;84.20;;;;;;5029363;28;20050;-74
2022/11/09 08:36:43;;;;;;;13.45;3.05;;;12.80;83.90;;;;;;5038100;28;20021;-74
2022/11/09 08:39:09;;;;;;;13.88;3.35;;;12.90;83.10;;;;;;5028206;28;20359;-76
2022/11/09 08:41:35;;;;;;;14.57;3.40;;;12.80;82.60;;;;;;5028648;28;20034;-74
2022/11/09 08:44:01;;;;;;;13.15;3.65;;;12.80;82.70;;;;;;5028785;28;20071;-73
2022/11/09 08:46:26;;;;;;;15.48;3.55;;;12.80;82.90;;;;;;5030305;28;20136;-76
2022/11/09 08:48:52;;;;;;;13.27;4.15;;;12.90;82.80;;;;;;5029536;28;20037;-74
2022/11/09 08:51:18;;;;;;;12.48;2.88;;;13.00;82.40;;;;;;5030117;28;20089;-74
2022/11/09 08:53:43;;;;;;;17.80;3.78;;;13.10;82.20;;;;;;5028073;28;20148;-74
2022/11/09 08:56:11;;;;;;;11.57;3.55;;;13.10;82.00;;;;;;5023378;28;20439;-74
2022/11/09 08:58:37;;;;;;;12.75;2.80;;;13.10;82.00;;;;;;5024303;28;20033;-72
2022/11/09 09:01:07;;;;;;;12.82;3.28;;;13.10;81.70;;;;;;5027245;28;20029;-71
2022/11/09 09:03:33;;;;;;;12.25;3.25;;;13.30;81.50;;;;;;5025370;28;20041;-75
2022/11/09 09:06:05;;;;;;;13.25;3.35;;;13.40;81.00;;;;;;5029889;28;20033;-75
2022/11/09 09:08:30;;;;;;;14.73;3.33;;;13.50;80.90;;;;;;5024323;28;20079;-75
2022/11/09 09:10:56;;;;;;;13.30;3.40;;;13.60;80.20;;;;;;5021807;28;20033;-72
2022/11/09 09:13:22;;;;;;;12.52;2.90;;;13.40;80.60;;;;;;5010633;28;20037;-72
2022/11/09 09:15:49;;;;;;;11.50;3.50;;;13.60;80.70;;;;;;5019407;28;20033;-72
2022/11/09 09:18:15;;;;;;;11.18;3.08;;;13.60;80.40;;;;;;5032130;28;20052;-73
2022/11/09 09:20:41;;;;;;;13.10;3.10;;;13.50;80.80;;;;;;5046912;28;20392;-72
2022/11/09 09:23:07;;;;;;;14.82;3.58;;;13.70;80.30;;;;;;5026195;28;20044;-73
2022/11/09 09:25:32;;;;;;;13.07;2.95;;;13.90;79.70;;;;;;5024762;28;20033;-74
2022/11/09 09:27:58;;;;;;;14.32;3.15;;;13.90;79.20;;;;;;5036671;28;20033;-73
2022/11/09 09:30:24;;;;;;;12.40;2.65;;;13.90;79.50;;;;;;5025903;28;20079;-74
2022/11/09 09:32:49;;;;;;;14.23;4.00;;;14.10;78.80;;;;;;5048277;28;20579;-73
2022/11/09 09:35:15;;;;;;;13.65;4.00;;;14.30;78.10;;;;;;5048927;28;20052;-74
2022/11/09 09:37:43;;;;;;;14.82;5.57;;;14.50;77.60;;;;;;5044841;28;20496;-74
2022/11/09 09:40:20;;;;;;;17.42;4.47;;;14.60;76.70;;;;;;5026900;28;20030;-72
2022/11/09 09:42:46;;;;;;;11.23;3.78;;;14.60;76.60;;;;;;5036640;28;20029;-73
2022/11/09 09:45:22;;;;;;;16.60;4.82;;;14.40;77.50;;;;;;5033084;28;20067;-72
2022/11/09 09:48:01;;;;;;;15.57;3.90;;;14.30;77.60;;;;;;5047759;28;20126;-73
2022/11/09 09:50:59;;;;;;;13.48;4.00;;;14.30;77.50;;;;;;5030424;28;20222;-72
2022/11/09 09:53:49;;;;;;;13.27;3.55;;;14.30;77.70;;;;;;5044802;28;20273;-73
2022/11/09 09:56:24;;;;;;;14.65;3.58;;;14.30;77.40;;;;;;5020716;28;20025;-73
2022/11/09 09:59:12;;;;;;;17.17;3.85;;;14.10;77.50;;;;;;5040817;28;20116;-73
2022/11/09 10:01:41;;;;;;;14.35;3.72;;;14.10;78.10;;;;;;5043682;28;20059;-73
2022/11/09 10:04:40;;;;;;;12.77;3.00;;;14.10;77.80;;;;;;5046879;28;20048;-74
2022/11/09 10:07:17;;;;;;;15.63;3.50;;;14.10;78.00;;;;;;5022839;28;20036;-75
2022/11/09 10:10:16;;;;;;;12.45;3.25;;;14.10;77.80;;;;;;5038728;28;20037;-73
2022/11/09 10:12:57;;;;;;;13.82;3.15;;;14.00;77.70;;;;;;5036114;28;20111;-73
2022/11/09 10:15:39;;;;;;;11.75;2.95;;;13.90;78.40;;;;;;5041799;28;20061;-75
2022/11/09 10:18:32;;;;;;;12.98;3.38;;;14.00;79.60;;;;;;5025792;28;20506;-74
2022/11/09 10:21:13;;;;;;;13.88;2.75;;;14.00;80.00;;;;;;5033161;28;20045;-74
2022/11/09 10:24:01;;;;;;;14.52;3.25;;;13.90;79.90;;;;;;5023908;28;20091;-73
2022/11/09 10:26:49;;;;;;;9.70;2.30;;;13.90;80.00;;;;;;5026989;28;20029;-73
2022/11/09 10:29:26;;;;;;;12.73;2.53;;;13.90;79.70;;;;;;5022625;28;20099;-74
2022/11/09 10:32:11;;;;;;;12.68;2.70;;;13.70;78.90;;;;;;5023244;28;20056;-73
2022/11/09 10:35:00;;;;;;;9.75;2.72;;;13.60;78.90;;;;;;5039523;28;20075;-75
2022/11/09 10:37:38;;;;;;;9.27;2.45;;;13.60;79.20;;;;;;5025918;28;20025;-77
2022/11/09 10:40:39;;;;;;;8.63;2.20;;;13.60;79.90;;;;;;5020643;28;20072;-72
2022/11/09 10:43:12;;;;;;;9.25;2.42;;;13.60;80.00;;;;;;5020600;28;20017;-73
2022/11/09 10:45:40;;;;;;;11.27;2.85;;;13.70;80.00;;;;;;5024788;28;20029;-75
2022/11/09 10:48:08;;;;;;;11.05;2.83;;;13.80;79.90;;;;;;5025096;28;20029;-74
2022/11/09 10:50:38;;;;;;;9.15;2.70;;;13.90;80.10;;;;;;5026587;28;21491;-73
2022/11/09 10:53:28;;;;;;;13.02;4.47;;;14.00;80.20;;;;;;5017940;28;20244;-73
2022/11/09 10:56:03;;;;;;;12.43;2.97;;;14.30;79.90;;;;;;5018088;28;20041;-74
2022/11/09 10:58:35;;;;;;;12.20;2.88;;;14.40;79.40;;;;;;5023192;28;20034;-75
2022/11/09 11:01:00;;;;;;;12.70;3.10;;;14.50;79.10;;;;;;5022478;28;20030;-75
2022/11/09 11:03:27;;;;;;;15.35;3.75;;;14.50;79.30;;;;;;5025119;28;20037;-81
2022/11/09 11:06:17;;;;;;;14.20;3.50;;;14.70;79.10;;;;;;5036949;28;20052;-77
2022/11/09 11:08:51;;;;;;;12.40;2.83;;;14.90;78.40;;;;;;5047235;28;20059;-82
2022/11/09 11:11:23;;;;;;;12.85;3.25;;;15.20;76.70;;;;;;5038478;28;20052;-76
2022/11/09 11:13:50;;;;;;;9.05;3.17;;;15.30;76.40;;;;;;5033666;28;20099;-82
2022/11/09 11:16:19;;;;;;;11.10;3.05;;;15.40;75.90;;;;;;5025036;28;20570;-83
2022/11/09 11:18:46;;;;;;;9.77;2.25;;;15.40;75.30;;;;;;5018252;28;20052;-79
2022/11/09 11:21:20;;;;;;;12.05;2.70;;;15.30;75.10;;;;;;5022546;28;20042;-80
2022/11/09 11:24:08;;;;;;;10.97;2.63;;;14.90;75.00;;;;;;5022154;28;20534;-82
2022/11/09 11:26:46;;;;;;;9.00;2.53;;;14.80;75.50;;;;;;5025415;28;20288;-79
2022/11/09 11:29:20;;;;;;;8.88;2.65;;;14.70;75.70;;;;;;5022272;28;20477;-81
2022/11/09 11:31:45;;;;;;;9.93;2.50;;;14.70;75.60;;;;;;5019848;28;20128;-81
2022/11/09 11:34:14;;;;;;;8.15;2.10;;;14.60;75.70;;;;;;5020320;28;20955;-81
2022/11/09 11:36:57;;;;;;;9.05;3.38;;;14.50;74.40;;;;;;5022086;28;20041;-77
2022/11/09 11:39:40;;;;;;;8.70;2.00;;;14.40;74.50;;;;;;5021179;28;20477;-82
2022/11/09 11:42:12;;;;;;;7.35;2.38;;;14.10;74.50;;;;;;5020800;28;20060;-76
2022/11/09 11:45:00;;;;;;;8.85;1.98;;;14.10;74.90;;;;;;5019816;28;20518;-80
2022/11/09 11:47:34;;;;;;;5.20;1.75;;;14.20;74.40;;;;;;5037093;28;20036;-83
2022/11/09 11:50:37;;;;;;;7.78;2.67;;;14.40;73.90;;;;;;5021747;28;20180;-80
2022/11/09 11:53:03;;;;;;;6.35;2.45;;;14.70;72.60;;;;;;5023775;28;20034;-81
2022/11/09 11:56:16;;;;;;;8.07;2.70;;;14.80;71.80;;;;;;5021680;28;20033;-81
2022/11/09 11:58:47;;;;;;;6.20;1.70;;;14.90;72.00;;;;;;5011101;28;20038;-79
2022/11/09 12:01:28;;;;;;;5.07;1.88;;;14.90;71.50;;;;;;5022048;28;20038;-80
2022/11/09 12:03:56;;;;;;;5.80;1.42;;;15.00;71.00;;;;;;5019940;28;20053;-81
2022/11/09 12:06:29;;;;;;;5.95;1.83;;;15.00;71.50;;;;;;5019760;28;20150;-80
2022/11/09 12:08:57;;;;;;;5.82;1.90;;;15.20;71.60;;;;;;5021878;28;20053;-81
2022/11/09 12:11:38;;;;;;;7.15;1.90;;;15.20;71.70;;;;;;5034956;28;20388;-78
2022/11/09 12:14:31;;;;;;;6.55;2.00;;;15.30;71.80;;;;;;5024836;28;20033;-78
2022/11/09 12:17:19;;;;;;;8.05;2.00;;;15.40;72.60;;;;;;5058101;28;20090;-82
2022/11/09 12:20:09;;;;;;;9.48;2.20;;;15.60;72.70;;;;;;5021064;28;20060;-81
2022/11/09 12:23:01;;;;;;;10.50;2.47;;;15.50;72.40;;;;;;5023348;28;20397;-78
2022/11/09 12:25:39;;;;;;;9.77;2.63;;;15.20;73.20;;;;;;5040415;28;20034;-80
2022/11/09 12:28:13;;;;;;;8.60;2.35;;;15.10;74.10;;;;;;5039024;28;20065;-81
2022/11/09 12:30:52;;;;;;;7.90;2.42;;;15.20;74.90;;;;;;5038927;28;20049;-79
2022/11/09 12:33:36;;;;;;;8.32;2.63;;;15.30;74.60;;;;;;5039981;28;20480;-81
2022/11/09 12:36:10;;;;;;;10.77;2.35;;;15.50;74.10;;;;;;5037896;28;20534;-82
2022/11/09 12:38:40;;;;;;;;;;;15.60;72.40;;;;;;5037770;28;20029;-82
2022/11/09 12:41:28;;;;;;;9.00;2.35;;;15.70;71.80;;;;;;5036425;28;20254;-80
2022/11/09 12:44:05;;;;;;;7.55;2.40;;;15.80;71.80;;;;;;5020428;28;20037;-80
2022/11/09 12:46:37;;;;;;;8.55;2.63;;;15.80;72.10;;;;;;5033383;28;20346;-77
2022/11/09 12:49:04;;;;;;;8.75;2.63;;;15.90;71.80;;;;;;5039711;28;20036;-81
2022/11/09 12:51:31;;;;;;;10.82;3.00;;;16.00;71.80;;;;;;5030400;28;20493;-83